createdAt,value
2018-07-22T00:00:29.887Z,88.22
2018-07-22T00:03:01.886Z,88.78
2018-07-22T00:05:33.044Z,88.37
2018-07-22T00:08:04.547Z,88.68
2018-07-22T00:10:36.142Z,90.43
2018-07-22T00:13:07.461Z,92.07
2018-07-22T00:15:38.748Z,92.71
2018-07-22T00:18:09.944Z,92.77
2018-07-22T00:20:41.611Z,92.51
2018-07-22T00:23:13.612Z,92.33
2018-07-22T00:25:44.527Z,91.33
2018-07-22T00:28:15.997Z,92.27
2018-07-22T00:30:47.380Z,91.99
2018-07-22T00:33:19.244Z,91.17
2018-07-22T00:35:52.356Z,89.46
2018-07-22T00:38:24.102Z,88.48
2018-07-22T00:40:55.065Z,87.38
2018-07-22T00:43:26.414Z,88.63
2018-07-22T00:45:57.531Z,88.94
2018-07-22T00:48:28.840Z,89.16
2018-07-22T00:50:59.754Z,89.78
2018-07-22T00:53:31.581Z,90.11
2018-07-22T00:56:02.537Z,90.83
2018-07-22T00:58:33.548Z,90.59
2018-07-22T01:01:04.618Z,91.24
2018-07-22T01:03:35.797Z,91.19
2018-07-22T01:06:07.115Z,91.03
2018-07-22T01:08:38.285Z,91.58
2018-07-22T01:11:09.831Z,90.55
2018-07-22T01:13:43.249Z,89.41
2018-07-22T01:16:15.909Z,90.50
2018-07-22T01:18:47.010Z,89.15
2018-07-22T01:21:18.112Z,88.89
2018-07-22T01:23:49.388Z,89.04
2018-07-22T01:26:20.434Z,88.90
2018-07-22T01:28:56.819Z,89.24
2018-07-22T01:31:28.109Z,90.23
2018-07-22T01:33:59.237Z,93.87
2018-07-22T01:36:30.043Z,93.87
2018-07-22T01:39:01.368Z,93.87
2018-07-22T01:41:33.433Z,92.92
2018-07-22T01:44:04.422Z,94.39
2018-07-22T01:46:35.372Z,95.10
2018-07-22T01:49:06.434Z,95.42
2018-07-22T01:51:37.248Z,95.30
2018-07-22T01:54:08.789Z,94.27
2018-07-22T01:56:40.110Z,95.68
2018-07-22T01:59:11.927Z,94.32
2018-07-22T02:01:44.202Z,96.99
2018-07-22T02:04:16.796Z,97.46
2018-07-22T02:06:47.882Z,98.22
2018-07-22T02:09:18.900Z,98.43
2018-07-22T02:11:50.096Z,100.00
2018-07-22T02:14:21.140Z,100.00
2018-07-22T02:16:52.306Z,99.44
2018-07-22T02:19:23.385Z,100.00
2018-07-22T02:21:54.840Z,99.33
2018-07-22T02:24:28.344Z,100.00
2018-07-22T02:26:59.400Z,98.17
2018-07-22T02:29:30.529Z,97.39
2018-07-22T02:32:02.611Z,98.17
2018-07-22T02:34:34.907Z,97.49
2018-07-22T02:37:05.959Z,96.08
2018-07-22T02:39:37.533Z,96.02
2018-07-22T02:42:09.409Z,96.42
2018-07-22T02:44:41.523Z,97.57
2018-07-22T02:47:12.894Z,96.92
2018-07-22T02:49:44.222Z,96.85
2018-07-22T02:52:15.267Z,96.58
2018-07-22T02:54:46.183Z,97.01
2018-07-22T02:57:17.213Z,96.68
2018-07-22T02:59:48.034Z,96.79
2018-07-22T03:02:19.190Z,95.41
2018-07-22T03:04:51.067Z,95.07
2018-07-22T03:07:23.082Z,94.93
2018-07-22T03:09:55.435Z,94.25
2018-07-22T03:12:26.453Z,93.19
2018-07-22T03:14:58.801Z,90.50
2018-07-22T03:17:29.961Z,87.47
2018-07-22T03:20:01.072Z,84.60
2018-07-22T03:22:32.178Z,82.33
2018-07-22T03:25:03.206Z,78.99
2018-07-22T03:27:34.044Z,75.52
2018-07-22T03:30:05.248Z,73.73
2018-07-22T03:32:36.220Z,70.57
2018-07-22T03:35:08.566Z,67.94
2018-07-22T03:37:40.788Z,66.08
2018-07-22T03:40:11.837Z,62.96
2018-07-22T03:42:42.851Z,61.08
2018-07-22T03:45:13.936Z,59.28
2018-07-22T03:47:45.001Z,54.92
2018-07-22T03:50:15.896Z,53.21
2018-07-22T03:52:46.921Z,50.48
2018-07-22T03:55:18.105Z,49.27
2018-07-22T03:57:49.151Z,47.49
2018-07-22T04:00:20.677Z,46.46
2018-07-22T04:02:51.453Z,44.73
2018-07-22T04:05:23.290Z,43.68
2018-07-22T04:07:54.608Z,40.20
2018-07-22T04:10:26.783Z,39.62
2018-07-22T04:12:57.740Z,38.26
2018-07-22T04:15:30.814Z,39.60
2018-07-22T04:18:02.154Z,38.60
2018-07-22T04:20:33.165Z,35.75
2018-07-22T04:23:04.304Z,36.48
2018-07-22T04:25:36.435Z,35.95
2018-07-22T04:28:07.195Z,36.06
2018-07-22T04:30:38.394Z,35.55
2018-07-22T04:33:10.803Z,38.34
2018-07-22T04:35:43.826Z,36.76
2018-07-22T04:38:15.199Z,34.52
2018-07-22T04:40:46.525Z,33.18
2018-07-22T04:43:17.888Z,31.80
2018-07-22T04:45:50.094Z,30.40
2018-07-22T04:48:21.250Z,29.16
2018-07-22T04:50:52.351Z,28.81
2018-07-22T04:53:23.878Z,28.82
2018-07-22T04:55:55.763Z,27.87
2018-07-22T04:58:26.733Z,28.32
2018-07-22T05:00:58.334Z,27.21
2018-07-22T05:03:30.917Z,28.05
2018-07-22T05:06:03.311Z,27.02
2018-07-22T05:08:34.428Z,26.03
2018-07-22T05:11:05.696Z,25.25
2018-07-22T05:13:38.057Z,24.76
2018-07-22T05:16:10.005Z,25.07
2018-07-22T05:18:41.053Z,25.08
2018-07-22T05:21:12.324Z,24.49
2018-07-22T05:23:43.996Z,24.29
2018-07-22T05:26:16.028Z,24.60
2018-07-22T05:28:47.189Z,24.06
2018-07-22T05:31:18.356Z,23.27
2018-07-22T05:33:49.532Z,22.43
2018-07-22T05:36:23.452Z,21.39
2018-07-22T05:38:56.015Z,21.41
2018-07-22T05:41:29.521Z,22.25
2018-07-22T05:44:00.693Z,22.07
2018-07-22T05:46:31.948Z,21.80
2018-07-22T05:49:03.442Z,21.57
2018-07-22T05:51:35.109Z,21.50
2018-07-22T05:54:06.285Z,21.79
2018-07-22T05:56:38.800Z,21.76
2018-07-22T05:59:10.944Z,22.56
2018-07-22T06:01:42.202Z,23.27
2018-07-22T06:06:51.304Z,20.69
2018-07-22T06:09:22.402Z,22.73
2018-07-22T06:11:53.730Z,22.57
2018-07-22T06:14:25.277Z,20.97
2018-07-22T06:16:57.869Z,20.84
2018-07-22T06:19:28.940Z,22.10
2018-07-22T06:22:00.136Z,23.83
2018-07-22T06:24:31.648Z,24.12
2018-07-22T06:27:03.858Z,23.93
2018-07-22T06:29:35.118Z,23.91
2018-07-22T06:32:07.840Z,22.94
2018-07-22T06:34:38.878Z,23.72
2018-07-22T06:37:10.002Z,24.74
2018-07-22T06:39:41.341Z,24.58
2018-07-22T06:44:39.514Z,22.80
2018-07-22T06:47:10.590Z,23.43
2018-07-22T06:49:42.035Z,21.28
2018-07-22T06:52:13.383Z,21.45
2018-07-22T06:54:44.515Z,21.25
2018-07-22T06:57:15.616Z,23.02
2018-07-22T06:59:47.483Z,21.20
2018-07-22T07:02:19.060Z,20.77
2018-07-22T07:04:50.349Z,21.00
2018-07-22T07:07:21.276Z,20.11
2018-07-22T07:09:52.362Z,22.31
2018-07-22T07:12:23.357Z,22.02
2018-07-22T07:14:54.881Z,23.22
2018-07-22T07:17:26.066Z,22.87
2018-07-22T07:19:57.175Z,20.84
2018-07-22T07:22:29.396Z,21.37
2018-07-22T07:25:00.403Z,21.82
2018-07-22T07:27:32.749Z,21.34
2018-07-22T07:30:05.580Z,21.37
2018-07-22T07:32:36.576Z,21.44
2018-07-22T07:35:09.631Z,23.06
2018-07-22T07:37:41.071Z,23.46
2018-07-22T07:40:12.105Z,25.45
2018-07-22T07:42:43.215Z,25.01
2018-07-22T07:45:14.299Z,23.69
2018-07-22T07:47:45.456Z,25.58
2018-07-22T07:50:16.681Z,26.12
2018-07-22T07:52:48.146Z,26.59
2018-07-22T07:55:19.440Z,28.87
2018-07-22T07:57:50.682Z,29.22
2018-07-22T08:00:21.940Z,28.08
2018-07-22T08:02:55.065Z,26.79
2018-07-22T08:05:27.326Z,26.74
2018-07-22T08:07:58.701Z,29.65
2018-07-22T08:10:29.683Z,33.87
2018-07-22T08:13:02.301Z,38.67
2018-07-22T08:15:34.080Z,40.82
2018-07-22T08:18:07.207Z,43.74
2018-07-22T08:20:38.268Z,47.16
2018-07-22T08:23:09.383Z,47.44
2018-07-22T08:25:42.524Z,49.82
2018-07-22T08:28:14.524Z,51.97
2018-07-22T08:30:46.125Z,53.82
2018-07-22T08:33:17.027Z,53.68
2018-07-22T08:35:50.231Z,55.06
2018-07-22T08:38:21.457Z,54.13
2018-07-22T08:40:53.474Z,54.94
2018-07-22T08:43:24.615Z,56.15
2018-07-22T08:45:56.383Z,56.36
2018-07-22T08:48:29.238Z,56.41
2018-07-22T08:51:01.212Z,55.82
2018-07-22T08:53:33.210Z,56.03
2018-07-22T08:56:06.235Z,58.55
2018-07-22T08:58:37.487Z,57.09
2018-07-22T09:01:08.944Z,56.75
2018-07-22T09:03:43.802Z,55.86
2018-07-22T09:06:15.568Z,55.57
2018-07-22T09:08:46.497Z,52.26
2018-07-22T09:11:18.572Z,55.29
2018-07-22T09:13:49.793Z,54.51
2018-07-22T09:16:22.008Z,52.39
2018-07-22T09:18:53.095Z,53.69
2018-07-22T09:21:24.905Z,53.69
2018-07-22T09:23:55.681Z,53.67
2018-07-22T09:26:27.528Z,54.21
2018-07-22T09:28:58.592Z,53.49
2018-07-22T09:31:29.465Z,52.63
2018-07-22T09:34:02.856Z,50.47
2018-07-22T09:36:34.199Z,50.58
2018-07-22T09:39:08.075Z,51.23
2018-07-22T09:41:40.572Z,50.15
2018-07-22T09:44:11.757Z,51.16
2018-07-22T09:46:42.745Z,52.46
2018-07-22T09:49:13.816Z,50.78
2018-07-22T09:51:46.206Z,52.66
2018-07-22T09:54:17.060Z,50.19
2018-07-22T09:56:48.506Z,50.89
2018-07-22T09:59:20.622Z,51.46
2018-07-22T10:01:51.653Z,50.48
2018-07-22T10:04:22.687Z,52.63
2018-07-22T10:06:55.063Z,51.81
2018-07-22T10:09:26.266Z,52.03
2018-07-22T10:11:57.498Z,50.85
2018-07-22T10:14:28.968Z,51.62
2018-07-22T10:16:59.887Z,52.79
2018-07-22T10:19:30.872Z,51.17
2018-07-22T10:22:02.688Z,52.24
2018-07-22T10:24:33.925Z,52.63
2018-07-22T10:27:06.230Z,54.39
2018-07-22T10:29:37.198Z,55.38
2018-07-22T10:32:08.613Z,55.34
2018-07-22T10:34:39.830Z,58.60
2018-07-22T10:37:11.570Z,56.53
2018-07-22T10:39:42.413Z,55.71
2018-07-22T10:42:13.524Z,56.90
2018-07-22T10:44:44.655Z,56.57
2018-07-22T10:47:16.652Z,55.49
2018-07-22T10:49:49.297Z,54.57
2018-07-22T10:52:21.552Z,55.48
2018-07-22T10:54:53.220Z,55.37
2018-07-22T10:57:24.564Z,56.95
2018-07-22T10:59:55.732Z,57.57
2018-07-22T11:02:28.813Z,58.22
2018-07-22T11:04:59.824Z,59.09
2018-07-22T11:07:31.153Z,59.16
2018-07-22T11:10:02.619Z,58.71
2018-07-22T11:12:34.835Z,59.48
2018-07-22T11:15:06.918Z,59.33
2018-07-22T11:17:38.064Z,60.18
2018-07-22T11:20:09.226Z,61.27
2018-07-22T11:22:42.161Z,60.84
2018-07-22T11:25:13.249Z,58.63
2018-07-22T11:27:44.348Z,61.09
2018-07-22T11:30:15.375Z,59.71
2018-07-22T11:32:46.723Z,60.36
2018-07-22T11:35:18.529Z,61.29
2018-07-22T11:37:49.500Z,62.61
2018-07-22T11:40:20.595Z,62.30
2018-07-22T11:42:52.575Z,63.54
2018-07-22T11:45:23.712Z,64.11
2018-07-22T11:47:56.098Z,63.44
2018-07-22T11:50:30.991Z,65.29
2018-07-22T11:53:02.548Z,63.84
2018-07-22T11:55:33.814Z,64.74
2018-07-22T11:58:04.943Z,65.53
2018-07-22T12:00:37.370Z,63.48
2018-07-22T12:03:08.808Z,63.83
2018-07-22T12:05:40.196Z,65.11
2018-07-22T12:08:12.494Z,64.14
2018-07-22T12:10:44.540Z,64.59
2018-07-22T12:13:16.795Z,65.39
2018-07-22T12:15:47.982Z,64.96
2018-07-22T12:18:18.916Z,63.66
2018-07-22T12:20:49.954Z,64.05
2018-07-22T12:23:21.682Z,65.76
2018-07-22T12:25:52.978Z,65.77
2018-07-22T12:28:24.026Z,66.30
2018-07-22T12:30:54.916Z,68.14
2018-07-22T12:33:25.985Z,68.76
2018-07-22T12:35:58.376Z,70.59
2018-07-22T12:38:30.936Z,71.08
2018-07-22T12:41:01.926Z,70.25
2018-07-22T12:43:32.962Z,68.88
2018-07-22T12:46:04.383Z,70.07
2018-07-22T12:48:35.924Z,69.23
2018-07-22T12:51:07.112Z,68.57
2018-07-22T12:53:41.787Z,67.79
2018-07-22T12:56:17.236Z,68.67
2018-07-22T12:58:48.937Z,71.32
2018-07-22T13:01:19.959Z,72.04
2018-07-22T13:03:51.206Z,69.32
2018-07-22T13:06:23.718Z,70.20
2018-07-22T13:08:54.827Z,71.95
2018-07-22T13:11:26.276Z,70.65
2018-07-22T13:13:59.303Z,69.45
2018-07-22T13:16:30.924Z,71.95
2018-07-22T13:19:01.886Z,70.49
2018-07-22T13:24:32.888Z,70.63
2018-07-22T13:27:04.251Z,71.72
2018-07-22T13:29:36.019Z,71.28
2018-07-22T13:32:07.390Z,70.72
2018-07-22T13:34:38.715Z,71.13
2018-07-22T13:37:10.188Z,71.04
2018-07-22T13:39:41.314Z,69.99
2018-07-22T13:42:12.886Z,71.41
2018-07-22T13:44:43.992Z,72.28
2018-07-22T13:47:15.120Z,72.06
2018-07-22T13:49:46.458Z,74.07
2018-07-22T13:52:17.977Z,74.80
2018-07-22T13:54:52.043Z,74.58
2018-07-22T13:57:23.268Z,73.67
2018-07-22T13:59:55.180Z,74.12
2018-07-22T14:02:26.947Z,74.00
2018-07-22T14:04:57.940Z,74.93
2018-07-22T14:07:29.331Z,73.50
2018-07-22T14:10:00.462Z,72.40
2018-07-22T14:12:32.935Z,72.03
2018-07-22T14:15:05.865Z,71.93
2018-07-22T14:17:36.532Z,70.62
2018-07-22T14:20:08.198Z,70.13
2018-07-22T14:22:38.723Z,71.41
2018-07-22T14:25:09.589Z,71.42
2018-07-22T14:27:40.606Z,72.35
2018-07-22T14:30:11.981Z,71.53
2018-07-22T14:32:43.429Z,72.05
2018-07-22T14:35:14.650Z,71.87
2018-07-22T14:37:45.889Z,72.92
2018-07-22T14:40:17.102Z,72.54
2018-07-22T14:42:49.246Z,73.21
2018-07-22T14:45:20.412Z,74.53
2018-07-22T14:47:51.669Z,73.63
2018-07-22T14:50:23.900Z,75.93
2018-07-22T14:52:55.092Z,75.32
2018-07-22T14:55:27.017Z,75.14
2018-07-22T14:57:58.271Z,75.75
2018-07-22T15:00:30.398Z,76.12
2018-07-22T15:03:01.688Z,76.20
2018-07-22T15:05:33.629Z,77.06
2018-07-22T15:08:05.122Z,77.46
2018-07-22T15:10:36.947Z,77.06
2018-07-22T15:13:07.980Z,77.65
2018-07-22T15:15:39.741Z,75.91
2018-07-22T15:18:11.811Z,76.35
2018-07-22T15:20:43.186Z,76.16
2018-07-22T15:23:14.177Z,76.78
2018-07-22T15:25:45.469Z,76.50
2018-07-22T15:28:17.229Z,76.97
2018-07-22T15:30:48.270Z,77.09
2018-07-22T15:33:20.328Z,77.19
2018-07-22T15:35:51.698Z,78.11
2018-07-22T15:38:22.789Z,76.03
2018-07-22T15:40:53.921Z,77.39
2018-07-22T15:43:25.028Z,76.64
2018-07-22T15:45:56.431Z,76.67
2018-07-22T15:48:29.061Z,77.90
2018-07-22T15:51:00.505Z,78.07
2018-07-22T15:53:31.652Z,78.48
2018-07-22T15:56:03.693Z,79.24
2018-07-22T15:58:36.648Z,80.85
2018-07-22T16:01:08.457Z,81.12
2018-07-22T16:03:39.198Z,82.14
2018-07-22T16:06:10.539Z,83.55
2018-07-22T16:08:41.634Z,83.59
2018-07-22T16:11:13.482Z,83.62
2018-07-22T16:13:44.589Z,82.87
2018-07-22T16:16:15.807Z,83.90
2018-07-22T16:18:46.989Z,83.69
2018-07-22T16:21:18.573Z,83.53
2018-07-22T16:23:51.465Z,81.96
2018-07-22T16:26:23.410Z,82.08
2018-07-22T16:28:55.108Z,82.72
2018-07-22T16:31:27.544Z,81.30
2018-07-22T16:33:58.889Z,81.97
2018-07-22T16:36:30.937Z,82.02
2018-07-22T16:39:03.039Z,83.10
2018-07-22T16:41:34.050Z,83.96
2018-07-22T16:44:06.113Z,83.64
2018-07-22T16:46:38.380Z,85.64
2018-07-22T16:49:13.859Z,87.60
2018-07-22T16:51:46.696Z,86.73
2018-07-22T16:54:17.881Z,87.39
2018-07-22T16:56:50.163Z,86.78
2018-07-22T16:59:21.568Z,88.34
2018-07-22T17:01:54.780Z,87.94
2018-07-22T17:04:26.167Z,87.82
2018-07-22T17:07:00.504Z,86.10
2018-07-22T17:09:31.833Z,86.72
2018-07-22T17:12:04.765Z,86.62
2018-07-22T17:14:36.130Z,92.23
2018-07-22T17:17:08.104Z,87.32
2018-07-22T17:19:39.948Z,84.74
2018-07-22T17:22:13.258Z,73.40
2018-07-22T17:24:45.032Z,70.78
2018-07-22T17:27:18.018Z,70.08
2018-07-22T17:29:49.222Z,67.89
2018-07-22T17:32:21.096Z,67.20
2018-07-22T17:34:52.142Z,95.40
2018-07-22T17:37:23.142Z,100.00
2018-07-22T17:39:58.508Z,100.00
2018-07-22T17:42:32.618Z,100.00
2018-07-22T17:45:03.576Z,100.00
2018-07-22T17:47:35.190Z,100.00
2018-07-22T17:50:11.073Z,100.00
2018-07-22T17:52:42.313Z,100.00
2018-07-22T17:55:13.574Z,100.00
2018-07-22T17:57:44.627Z,100.00
2018-07-22T18:00:16.407Z,100.00
2018-07-22T18:02:50.636Z,100.00
2018-07-22T18:05:21.724Z,100.00
2018-07-22T18:07:56.348Z,100.00
2018-07-22T18:10:27.828Z,100.00
2018-07-22T18:12:59.948Z,100.00
2018-07-22T18:15:33.264Z,100.00
2018-07-22T18:18:05.216Z,100.00
2018-07-22T18:20:36.416Z,100.00
2018-07-22T18:23:08.597Z,100.00
2018-07-22T18:25:40.573Z,100.00
2018-07-22T18:28:13.155Z,100.00
2018-07-22T18:30:46.869Z,100.00
2018-07-22T18:33:17.933Z,100.00
2018-07-22T18:35:49.445Z,100.00
2018-07-22T18:38:23.091Z,100.00
2018-07-22T18:40:54.888Z,100.00
2018-07-22T18:43:26.406Z,100.00
2018-07-22T18:45:57.735Z,100.00
2018-07-22T18:48:29.271Z,100.00
2018-07-22T18:51:00.925Z,100.00
2018-07-22T18:53:32.185Z,100.00
2018-07-22T18:56:03.689Z,100.00
2018-07-22T18:58:34.862Z,100.00
2018-07-22T19:01:06.061Z,100.00
2018-07-22T19:03:37.562Z,100.00
2018-07-22T19:06:10.123Z,100.00
2018-07-22T19:08:41.736Z,100.00
2018-07-22T19:11:14.125Z,100.00
2018-07-22T19:13:47.178Z,100.00
2018-07-22T19:16:21.266Z,100.00
2018-07-22T19:18:55.166Z,100.00
2018-07-22T19:21:26.956Z,100.00
2018-07-22T19:23:58.600Z,100.00
2018-07-22T19:26:31.226Z,100.00
2018-07-22T19:29:02.581Z,100.00
2018-07-22T19:31:34.155Z,100.00
2018-07-22T19:34:07.416Z,100.00
2018-07-22T19:36:40.035Z,100.00
2018-07-22T19:39:12.486Z,100.00
2018-07-22T19:41:45.000Z,100.00
2018-07-22T19:44:16.436Z,100.00
2018-07-22T19:46:47.819Z,100.00
2018-07-22T19:49:19.421Z,100.00
2018-07-22T19:51:50.866Z,100.00
2018-07-22T19:54:22.333Z,100.00
2018-07-22T19:56:54.740Z,100.00
2018-07-22T19:59:26.068Z,100.00
2018-07-22T20:01:57.265Z,100.00
2018-07-22T20:04:28.743Z,100.00
2018-07-22T20:07:00.488Z,100.00
2018-07-22T20:09:32.290Z,100.00
2018-07-22T20:12:04.983Z,100.00
2018-07-22T20:14:37.250Z,100.00
2018-07-22T20:17:09.501Z,100.00
2018-07-22T20:19:41.448Z,100.00
2018-07-22T20:22:13.455Z,99.08
2018-07-22T20:24:45.005Z,99.74
2018-07-22T20:27:16.189Z,100.00
2018-07-22T20:29:48.450Z,94.81
2018-07-22T20:32:20.773Z,95.73
2018-07-22T20:34:51.516Z,99.59
2018-07-22T20:37:22.690Z,98.55
2018-07-22T20:39:55.573Z,99.40
2018-07-22T20:42:26.734Z,98.92
2018-07-22T20:44:58.807Z,100.00
2018-07-22T20:47:31.227Z,100.00
2018-07-22T20:50:05.298Z,93.96
2018-07-22T20:52:39.590Z,96.07
2018-07-22T20:55:12.850Z,100.00
2018-07-22T20:57:46.854Z,100.00
2018-07-22T21:00:19.415Z,100.00
2018-07-22T21:02:51.592Z,100.00
2018-07-22T21:05:23.508Z,100.00
2018-07-22T21:07:55.082Z,99.08
2018-07-22T21:10:26.209Z,96.24
2018-07-22T21:13:08.961Z,94.46
2018-07-22T21:15:40.619Z,94.17
2018-07-22T21:18:11.747Z,93.42
2018-07-22T21:20:43.212Z,94.19
2018-07-22T21:23:14.720Z,96.98
2018-07-22T21:25:46.519Z,94.37
2018-07-22T21:28:18.839Z,92.34
2018-07-22T21:30:50.285Z,92.79
2018-07-22T21:33:22.584Z,90.42
2018-07-22T21:35:54.372Z,87.99
2018-07-22T21:38:27.044Z,87.33
2018-07-22T21:40:58.233Z,86.27
2018-07-22T21:43:30.711Z,84.89
2018-07-22T21:46:02.330Z,82.99
2018-07-22T21:48:33.589Z,84.21
2018-07-22T21:51:04.696Z,84.14
2018-07-22T21:53:35.869Z,84.28
2018-07-22T21:56:07.225Z,86.95
2018-07-22T21:58:38.598Z,83.49
2018-07-22T22:01:12.510Z,87.22
2018-07-22T22:03:44.498Z,81.74
2018-07-22T22:06:15.905Z,84.10
2018-07-22T22:08:47.108Z,84.70
2018-07-22T22:11:18.594Z,86.02
2018-07-22T22:13:49.767Z,83.54
2018-07-22T22:16:20.926Z,84.91
2018-07-22T22:18:53.557Z,85.11
2018-07-22T22:21:25.630Z,83.87
2018-07-22T22:23:56.778Z,85.57
2018-07-22T22:26:28.547Z,90.59
2018-07-22T22:28:59.951Z,89.43
2018-07-22T22:31:31.149Z,94.76
2018-07-22T22:34:02.619Z,99.85
2018-07-22T22:36:34.098Z,100.00
2018-07-22T22:39:07.525Z,100.00
2018-07-22T22:41:38.557Z,100.00
2018-07-22T22:44:09.850Z,100.00
2018-07-22T22:46:42.427Z,100.00
2018-07-22T22:49:13.507Z,100.00
2018-07-22T22:51:44.448Z,100.00
2018-07-22T22:54:16.110Z,100.00
2018-07-22T22:56:47.359Z,100.00
2018-07-22T22:59:22.025Z,100.00
2018-07-22T23:01:55.467Z,100.00
2018-07-22T23:04:26.731Z,97.95
2018-07-22T23:06:57.903Z,95.85
2018-07-22T23:09:29.117Z,94.54
2018-07-22T23:12:00.353Z,91.99
2018-07-22T23:14:31.525Z,90.12
2018-07-22T23:17:04.512Z,88.61
2018-07-22T23:19:35.623Z,85.88
2018-07-22T23:22:06.648Z,87.79
2018-07-22T23:24:37.883Z,83.72
2018-07-22T23:27:10.256Z,84.24
2018-07-22T23:29:41.323Z,88.08
2018-07-22T23:32:13.242Z,89.53
2018-07-22T23:34:44.377Z,92.53
2018-07-22T23:37:15.383Z,85.46
2018-07-22T23:39:46.732Z,83.28
2018-07-22T23:42:17.638Z,82.28
2018-07-22T23:44:49.056Z,80.48
2018-07-22T23:47:21.992Z,78.74
2018-07-22T23:49:53.474Z,80.67
2018-07-22T23:52:25.336Z,82.25
2018-07-22T23:54:56.521Z,76.98
2018-07-22T23:57:27.927Z,75.53
